sensor_id;sensor_type;location;lat;lon;timestamp;P1;durP1;ratioP1;P2;durP2;ratioP2
51082;SDS011;37131;42.694;23.350;2023-04-25T10:20:03;259.90;;;64.90;;
51082;SDS011;37131;42.694;23.350;2023-04-25T10:42:32;185.57;;;150.75;;
51082;SDS011;37131;42.694;23.350;2023-04-25T10:45:00;151.70;;;105.60;;
51082;SDS011;37131;42.694;23.350;2023-04-25T10:47:43;163.95;;;104.03;;
51082;SDS011;37131;42.694;23.350;2023-04-25T10:50:12;148.95;;;91.40;;
51082;SDS011;37131;42.694;23.350;2023-04-25T10:52:40;152.18;;;91.03;;
51082;SDS011;37131;42.694;23.350;2023-04-25T10:55:05;135.95;;;87.90;;
51082;SDS011;37131;42.694;23.350;2023-04-25T11:00:19;135.70;;;83.03;;
51082;SDS011;37131;42.694;23.350;2023-04-25T11:02:47;108.65;;;73.05;;
51082;SDS011;37131;42.694;23.350;2023-04-25T11:05:22;88.80;;;67.38;;
51082;SDS011;37131;42.694;23.350;2023-04-25T11:07:53;66.78;;;38.70;;
51082;SDS011;37131;42.694;23.350;2023-04-25T11:10:24;36.05;;;28.08;;
51082;SDS011;37131;42.694;23.350;2023-04-25T11:12:54;17.77;;;6.93;;
51082;SDS011;37131;42.694;23.350;2023-04-25T11:15:20;7.65;;;2.40;;
51082;SDS011;37131;42.694;23.350;2023-04-25T11:17:46;3.58;;;1.65;;
51082;SDS011;37131;42.694;23.350;2023-04-25T11:20:12;23.45;;;21.58;;
51082;SDS011;37131;42.694;23.350;2023-04-25T11:22:39;4.03;;;1.65;;
51082;SDS011;37131;42.694;23.350;2023-04-25T11:25:08;47.17;;;25.73;;
51082;SDS011;37131;42.694;23.350;2023-04-25T11:27:37;29.67;;;11.93;;
51082;SDS011;37131;42.694;23.350;2023-04-25T11:30:15;3.95;;;3.65;;
51082;SDS011;37131;42.694;23.350;2023-04-25T11:32:41;9.07;;;8.48;;
51082;SDS011;37131;42.694;23.350;2023-04-25T11:35:08;2.95;;;2.60;;
51082;SDS011;37131;42.694;23.350;2023-04-25T11:37:34;6.30;;;5.95;;
51082;SDS011;37131;42.694;23.350;2023-04-25T11:40:00;120.88;;;42.17;;
51082;SDS011;37131;42.694;23.350;2023-04-25T11:42:25;2.72;;;1.80;;
51082;SDS011;37131;42.694;23.350;2023-04-25T11:44:51;26.35;;;21.55;;
51082;SDS011;37131;42.694;23.350;2023-04-25T11:47:17;6.60;;;6.18;;
51082;SDS011;37131;42.694;23.350;2023-04-25T11:49:42;1.95;;;1.25;;
51082;SDS011;37131;42.694;23.350;2023-04-25T11:52:08;4.13;;;3.80;;
51082;SDS011;37131;42.694;23.350;2023-04-25T11:54:36;4.97;;;4.57;;
51082;SDS011;37131;42.694;23.350;2023-04-25T11:57:02;45.17;;;40.45;;
51082;SDS011;37131;42.694;23.350;2023-04-25T11:59:28;74.38;;;58.35;;
51082;SDS011;37131;42.694;23.350;2023-04-25T12:01:54;89.20;;;62.60;;
51082;SDS011;37131;42.694;23.350;2023-04-25T12:04:21;84.88;;;62.53;;
51082;SDS011;37131;42.694;23.350;2023-04-25T12:06:48;120.85;;;64.28;;
51082;SDS011;37131;42.694;23.350;2023-04-25T12:09:19;88.25;;;68.03;;
51082;SDS011;37131;42.694;23.350;2023-04-25T12:11:56;89.43;;;70.63;;
51082;SDS011;37131;42.694;23.350;2023-04-25T12:14:30;203.45;;;85.15;;
51082;SDS011;37131;42.694;23.350;2023-04-25T12:17:00;213.70;;;88.57;;
51082;SDS011;37131;42.694;23.350;2023-04-25T12:19:33;223.60;;;99.80;;
51082;SDS011;37131;42.694;23.350;2023-04-25T12:22:02;142.95;;;96.28;;
51082;SDS011;37131;42.694;23.350;2023-04-25T12:24:28;169.25;;;89.72;;
51082;SDS011;37131;42.694;23.350;2023-04-25T12:27:01;156.35;;;105.13;;
51082;SDS011;37131;42.694;23.350;2023-04-25T12:29:29;183.15;;;106.78;;
51082;SDS011;37131;42.694;23.350;2023-04-25T12:31:56;244.55;;;102.35;;
51082;SDS011;37131;42.694;23.350;2023-04-25T12:34:22;266.55;;;103.20;;
51082;SDS011;37131;42.694;23.350;2023-04-25T12:36:48;246.82;;;95.03;;
51082;SDS011;37131;42.694;23.350;2023-04-25T12:39:15;290.17;;;86.25;;
51082;SDS011;37131;42.694;23.350;2023-04-25T12:41:47;276.80;;;66.63;;
51082;SDS011;37131;42.694;23.350;2023-04-25T12:44:13;276.42;;;68.45;;
51082;SDS011;37131;42.694;23.350;2023-04-25T12:46:39;254.23;;;75.75;;
51082;SDS011;37131;42.694;23.350;2023-04-25T12:49:08;285.98;;;65.75;;
51082;SDS011;37131;42.694;23.350;2023-04-25T12:51:34;283.65;;;60.88;;
51082;SDS011;37131;42.694;23.350;2023-04-25T12:54:01;281.08;;;60.28;;
51082;SDS011;37131;42.694;23.350;2023-04-25T12:56:27;276.05;;;60.42;;
51082;SDS011;37131;42.694;23.350;2023-04-25T12:58:53;281.73;;;59.35;;
51082;SDS011;37131;42.694;23.350;2023-04-25T13:01:20;288.03;;;59.93;;
51082;SDS011;37131;42.694;23.350;2023-04-25T13:03:46;293.73;;;59.03;;
51082;SDS011;37131;42.694;23.350;2023-04-25T13:06:12;282.60;;;62.95;;
51082;SDS011;37131;42.694;23.350;2023-04-25T13:08:38;284.07;;;57.67;;
51082;SDS011;37131;42.694;23.350;2023-04-25T13:11:04;281.67;;;61.65;;
51082;SDS011;37131;42.694;23.350;2023-04-25T13:13:31;280.15;;;64.13;;
51082;SDS011;37131;42.694;23.350;2023-04-25T13:15:56;281.20;;;65.33;;
51082;SDS011;37131;42.694;23.350;2023-04-25T13:18:22;295.17;;;58.63;;
51082;SDS011;37131;42.694;23.350;2023-04-25T13:20:51;286.27;;;63.17;;
51082;SDS011;37131;42.694;23.350;2023-04-25T13:23:17;287.80;;;65.03;;
51082;SDS011;37131;42.694;23.350;2023-04-25T13:25:43;283.88;;;64.40;;
51082;SDS011;37131;42.694;23.350;2023-04-25T13:28:08;283.75;;;64.97;;
51082;SDS011;37131;42.694;23.350;2023-04-25T13:30:33;279.73;;;65.70;;
51082;SDS011;37131;42.694;23.350;2023-04-25T13:32:59;279.93;;;65.60;;
51082;SDS011;37131;42.694;23.350;2023-04-25T13:35:28;280.55;;;65.07;;
51082;SDS011;37131;42.694;23.350;2023-04-25T13:37:54;283.53;;;66.00;;
51082;SDS011;37131;42.694;23.350;2023-04-25T13:40:20;287.25;;;65.60;;
51082;SDS011;37131;42.694;23.350;2023-04-25T13:42:45;285.47;;;64.90;;
51082;SDS011;37131;42.694;23.350;2023-04-25T13:45:11;289.13;;;65.07;;
51082;SDS011;37131;42.694;23.350;2023-04-25T13:47:36;275.25;;;104.20;;
51082;SDS011;37131;42.694;23.350;2023-04-25T13:50:02;274.40;;;114.15;;
51082;SDS011;37131;42.694;23.350;2023-04-25T13:52:28;131.18;;;112.13;;
51082;SDS011;37131;42.694;23.350;2023-04-25T13:54:54;174.07;;;87.75;;
51082;SDS011;37131;42.694;23.350;2023-04-25T13:57:19;34.22;;;27.13;;
51082;SDS011;37131;42.694;23.350;2023-04-25T13:59:45;28.30;;;6.75;;
51082;SDS011;37131;42.694;23.350;2023-04-25T14:02:11;31.13;;;23.58;;
51082;SDS011;37131;42.694;23.350;2023-04-25T14:04:37;46.65;;;31.45;;
51082;SDS011;37131;42.694;23.350;2023-04-25T14:07:03;14.95;;;13.70;;
51082;SDS011;37131;42.694;23.350;2023-04-25T14:09:28;28.38;;;17.25;;
51082;SDS011;37131;42.694;23.350;2023-04-25T14:11:54;272.40;;;62.35;;
51082;SDS011;37131;42.694;23.350;2023-04-25T14:14:20;277.70;;;62.63;;
51082;SDS011;37131;42.694;23.350;2023-04-25T14:16:47;138.48;;;57.10;;
51082;SDS011;37131;42.694;23.350;2023-04-25T14:19:22;270.67;;;63.55;;
51082;SDS011;37131;42.694;23.350;2023-04-25T14:21:48;277.58;;;59.35;;
51082;SDS011;37131;42.694;23.350;2023-04-25T14:24:14;277.98;;;59.70;;
51082;SDS011;37131;42.694;23.350;2023-04-25T14:26:39;274.33;;;68.83;;
51082;SDS011;37131;42.694;23.350;2023-04-25T14:29:05;274.75;;;61.30;;
51082;SDS011;37131;42.694;23.350;2023-04-25T14:31:32;274.35;;;59.25;;
51082;SDS011;37131;42.694;23.350;2023-04-25T14:33:58;275.13;;;61.33;;
51082;SDS011;37131;42.694;23.350;2023-04-25T14:36:24;276.25;;;58.83;;
51082;SDS011;37131;42.694;23.350;2023-04-25T14:38:51;280.52;;;68.22;;
51082;SDS011;37131;42.694;23.350;2023-04-25T14:41:17;281.63;;;60.08;;
51082;SDS011;37131;42.694;23.350;2023-04-25T14:43:42;282.02;;;59.50;;
51082;SDS011;37131;42.694;23.350;2023-04-25T14:46:08;266.00;;;75.30;;
51082;SDS011;37131;42.694;23.350;2023-04-25T14:48:34;279.85;;;62.15;;
51082;SDS011;37131;42.694;23.350;2023-04-25T14:51:00;265.35;;;64.25;;
51082;SDS011;37131;42.694;23.350;2023-04-25T14:53:26;262.15;;;61.13;;
51082;SDS011;37131;42.694;23.350;2023-04-25T14:55:52;267.00;;;60.60;;
51082;SDS011;37131;42.694;23.350;2023-04-25T14:58:18;267.13;;;59.92;;
51082;SDS011;37131;42.694;23.350;2023-04-25T15:00:45;269.60;;;58.65;;
51082;SDS011;37131;42.694;23.350;2023-04-25T15:03:10;264.98;;;59.55;;
51082;SDS011;37131;42.694;23.350;2023-04-25T15:05:38;262.05;;;59.60;;
51082;SDS011;37131;42.694;23.350;2023-04-25T15:08:03;275.40;;;61.03;;
51082;SDS011;37131;42.694;23.350;2023-04-25T15:10:29;270.73;;;58.97;;
51082;SDS011;37131;42.694;23.350;2023-04-25T15:12:55;275.15;;;57.42;;
51082;SDS011;37131;42.694;23.350;2023-04-25T15:15:20;273.92;;;58.85;;
51082;SDS011;37131;42.694;23.350;2023-04-25T15:17:46;275.05;;;57.92;;
51082;SDS011;37131;42.694;23.350;2023-04-25T15:20:12;281.77;;;58.03;;
51082;SDS011;37131;42.694;23.350;2023-04-25T15:22:39;279.48;;;57.65;;
51082;SDS011;37131;42.694;23.350;2023-04-25T15:25:06;281.40;;;58.78;;
51082;SDS011;37131;42.694;23.350;2023-04-25T15:27:35;282.02;;;58.92;;
51082;SDS011;37131;42.694;23.350;2023-04-25T15:30:10;282.73;;;58.28;;
51082;SDS011;37131;42.694;23.350;2023-04-25T15:32:37;279.38;;;60.25;;
51082;SDS011;37131;42.694;23.350;2023-04-25T15:35:04;275.08;;;58.00;;
51082;SDS011;37131;42.694;23.350;2023-04-25T15:37:34;276.17;;;57.85;;
51082;SDS011;37131;42.694;23.350;2023-04-25T15:40:05;276.45;;;57.83;;
51082;SDS011;37131;42.694;23.350;2023-04-25T15:42:36;278.00;;;58.72;;
51082;SDS011;37131;42.694;23.350;2023-04-25T15:45:05;276.60;;;56.72;;
51082;SDS011;37131;42.694;23.350;2023-04-25T15:47:33;279.95;;;57.78;;
51082;SDS011;37131;42.694;23.350;2023-04-25T15:49:59;277.42;;;57.75;;
51082;SDS011;37131;42.694;23.350;2023-04-25T15:52:25;279.75;;;58.40;;
51082;SDS011;37131;42.694;23.350;2023-04-25T15:54:51;281.50;;;57.67;;
51082;SDS011;37131;42.694;23.350;2023-04-25T15:57:17;279.92;;;58.20;;
51082;SDS011;37131;42.694;23.350;2023-04-25T15:59:42;280.00;;;57.30;;
51082;SDS011;37131;42.694;23.350;2023-04-25T16:02:08;282.08;;;58.42;;
51082;SDS011;37131;42.694;23.350;2023-04-25T16:04:33;284.13;;;66.70;;
51082;SDS011;37131;42.694;23.350;2023-04-25T16:07:02;284.98;;;69.97;;
51082;SDS011;37131;42.694;23.350;2023-04-25T16:09:28;292.92;;;61.67;;
51082;SDS011;37131;42.694;23.350;2023-04-25T16:11:53;289.50;;;69.68;;
51082;SDS011;37131;42.694;23.350;2023-04-25T16:14:19;301.50;;;59.83;;
51082;SDS011;37131;42.694;23.350;2023-04-25T16:16:45;304.23;;;68.13;;
51082;SDS011;37131;42.694;23.350;2023-04-25T16:19:10;294.03;;;68.77;;
51082;SDS011;37131;42.694;23.350;2023-04-25T16:21:35;297.87;;;68.30;;
51082;SDS011;37131;42.694;23.350;2023-04-25T16:24:01;292.85;;;68.07;;
51082;SDS011;37131;42.694;23.350;2023-04-25T16:26:26;292.77;;;69.23;;
51082;SDS011;37131;42.694;23.350;2023-04-25T16:28:52;294.20;;;67.77;;
51082;SDS011;37131;42.694;23.350;2023-04-25T16:31:17;290.23;;;67.03;;
51082;SDS011;37131;42.694;23.350;2023-04-25T16:33:43;289.00;;;67.78;;
51082;SDS011;37131;42.694;23.350;2023-04-25T16:36:09;289.57;;;66.27;;
51082;SDS011;37131;42.694;23.350;2023-04-25T16:38:36;290.65;;;67.25;;
51082;SDS011;37131;42.694;23.350;2023-04-25T16:41:03;288.15;;;66.65;;
51082;SDS011;37131;42.694;23.350;2023-04-25T16:43:29;289.75;;;68.32;;
51082;SDS011;37131;42.694;23.350;2023-04-25T16:45:55;319.07;;;60.20;;
51082;SDS011;37131;42.694;23.350;2023-04-25T16:48:21;320.08;;;64.13;;
51082;SDS011;37131;42.694;23.350;2023-04-25T16:50:48;300.73;;;65.28;;
51082;SDS011;37131;42.694;23.350;2023-04-25T16:53:17;299.65;;;65.75;;
51082;SDS011;37131;42.694;23.350;2023-04-25T16:55:44;338.02;;;62.15;;
51082;SDS011;37131;42.694;23.350;2023-04-25T16:58:10;332.85;;;63.75;;
51082;SDS011;37131;42.694;23.350;2023-04-25T17:00:36;335.10;;;63.80;;
51082;SDS011;37131;42.694;23.350;2023-04-25T17:03:03;322.95;;;64.63;;
51082;SDS011;37131;42.694;23.350;2023-04-25T17:05:28;314.77;;;63.43;;
51082;SDS011;37131;42.694;23.350;2023-04-25T17:07:54;310.57;;;62.77;;
51082;SDS011;37131;42.694;23.350;2023-04-25T17:10:20;323.70;;;64.63;;
51082;SDS011;37131;42.694;23.350;2023-04-25T17:12:46;330.00;;;63.05;;
51082;SDS011;37131;42.694;23.350;2023-04-25T17:15:12;311.15;;;63.72;;
51082;SDS011;37131;42.694;23.350;2023-04-25T17:17:37;327.90;;;64.53;;
51082;SDS011;37131;42.694;23.350;2023-04-25T17:20:03;316.30;;;63.90;;
51082;SDS011;37131;42.694;23.350;2023-04-25T17:22:32;310.93;;;64.30;;
51082;SDS011;37131;42.694;23.350;2023-04-25T17:25:01;338.10;;;65.60;;
51082;SDS011;37131;42.694;23.350;2023-04-25T17:27:27;359.17;;;62.10;;
51082;SDS011;37131;42.694;23.350;2023-04-25T17:29:53;358.73;;;62.47;;
51082;SDS011;37131;42.694;23.350;2023-04-25T17:32:19;346.00;;;62.83;;
51082;SDS011;37131;42.694;23.350;2023-04-25T17:34:44;354.27;;;61.42;;
51082;SDS011;37131;42.694;23.350;2023-04-25T17:37:12;340.08;;;62.83;;
51082;SDS011;37131;42.694;23.350;2023-04-25T17:39:40;366.55;;;61.72;;
51082;SDS011;37131;42.694;23.350;2023-04-25T17:42:06;361.02;;;63.13;;
51082;SDS011;37131;42.694;23.350;2023-04-25T17:44:31;351.07;;;61.83;;
51082;SDS011;37131;42.694;23.350;2023-04-25T17:46:57;357.75;;;61.88;;
51082;SDS011;37131;42.694;23.350;2023-04-25T17:49:22;386.07;;;61.20;;
51082;SDS011;37131;42.694;23.350;2023-04-25T17:51:48;379.67;;;61.73;;
51082;SDS011;37131;42.694;23.350;2023-04-25T17:54:13;374.17;;;63.20;;
51082;SDS011;37131;42.694;23.350;2023-04-25T17:56:39;363.10;;;64.37;;
51082;SDS011;37131;42.694;23.350;2023-04-25T17:59:04;353.20;;;62.60;;
51082;SDS011;37131;42.694;23.350;2023-04-25T18:01:30;355.43;;;62.70;;
51082;SDS011;37131;42.694;23.350;2023-04-25T18:03:56;338.25;;;63.65;;
51082;SDS011;37131;42.694;23.350;2023-04-25T18:06:21;333.73;;;64.70;;
51082;SDS011;37131;42.694;23.350;2023-04-25T18:08:47;364.73;;;63.53;;
51082;SDS011;37131;42.694;23.350;2023-04-25T18:11:13;347.40;;;64.18;;
51082;SDS011;37131;42.694;23.350;2023-04-25T18:13:39;344.38;;;63.42;;
51082;SDS011;37131;42.694;23.350;2023-04-25T18:16:05;356.77;;;64.85;;
51082;SDS011;37131;42.694;23.350;2023-04-25T18:18:31;394.10;;;62.60;;
51082;SDS011;37131;42.694;23.350;2023-04-25T18:21:00;387.20;;;64.00;;
51082;SDS011;37131;42.694;23.350;2023-04-25T18:23:28;368.25;;;63.05;;
51082;SDS011;37131;42.694;23.350;2023-04-25T18:25:56;386.57;;;66.20;;
51082;SDS011;37131;42.694;23.350;2023-04-25T18:30:47;374.23;;;61.73;;
51082;SDS011;37131;42.694;23.350;2023-04-25T18:33:14;382.98;;;62.80;;
51082;SDS011;37131;42.694;23.350;2023-04-25T18:35:39;389.77;;;63.10;;
51082;SDS011;37131;42.694;23.350;2023-04-25T18:38:05;392.80;;;63.50;;
51082;SDS011;37131;42.694;23.350;2023-04-25T18:40:30;368.35;;;64.28;;
51082;SDS011;37131;42.694;23.350;2023-04-25T18:42:56;410.40;;;65.45;;
51082;SDS011;37131;42.694;23.350;2023-04-25T18:45:21;427.75;;;65.60;;
51082;SDS011;37131;42.694;23.350;2023-04-25T18:47:46;413.00;;;67.50;;
51082;SDS011;37131;42.694;23.350;2023-04-25T18:50:12;410.40;;;65.90;;
51082;SDS011;37131;42.694;23.350;2023-04-25T18:52:37;416.80;;;67.70;;
51082;SDS011;37131;42.694;23.350;2023-04-25T18:55:03;414.00;;;111.80;;
51082;SDS011;37131;42.694;23.350;2023-04-25T18:57:29;402.50;;;66.00;;
51082;SDS011;37131;42.694;23.350;2023-04-25T18:59:54;360.35;;;72.80;;
51082;SDS011;37131;42.694;23.350;2023-04-25T19:02:20;410.20;;;68.40;;
51082;SDS011;37131;42.694;23.350;2023-04-25T19:04:46;406.90;;;73.80;;
51082;SDS011;37131;42.694;23.350;2023-04-25T19:09:38;364.55;;;65.50;;
51082;SDS011;37131;42.694;23.350;2023-04-25T19:12:04;374.67;;;67.97;;
51082;SDS011;37131;42.694;23.350;2023-04-25T19:14:33;356.50;;;67.50;;
51082;SDS011;37131;42.694;23.350;2023-04-25T19:16:58;339.67;;;65.45;;
51082;SDS011;37131;42.694;23.350;2023-04-25T19:19:24;348.37;;;71.57;;
51082;SDS011;37131;42.694;23.350;2023-04-25T19:21:51;347.60;;;71.97;;
51082;SDS011;37131;42.694;23.350;2023-04-25T19:24:16;338.35;;;68.47;;
51082;SDS011;37131;42.694;23.350;2023-04-25T19:26:42;328.70;;;68.47;;
51082;SDS011;37131;42.694;23.350;2023-04-25T19:29:08;325.67;;;69.03;;
51082;SDS011;37131;42.694;23.350;2023-04-25T19:31:36;310.35;;;65.78;;
51082;SDS011;37131;42.694;23.350;2023-04-25T19:34:03;389.27;;;78.93;;
51082;SDS011;37131;42.694;23.350;2023-04-25T19:36:29;313.45;;;65.03;;
51082;SDS011;37131;42.694;23.350;2023-04-25T19:41:26;331.85;;;66.53;;
51082;SDS011;37131;42.694;23.350;2023-04-25T19:43:52;349.97;;;59.73;;
51082;SDS011;37131;42.694;23.350;2023-04-25T19:46:17;337.75;;;64.22;;
51082;SDS011;37131;42.694;23.350;2023-04-25T19:48:43;328.93;;;65.23;;
51082;SDS011;37131;42.694;23.350;2023-04-25T19:51:08;319.67;;;65.57;;
51082;SDS011;37131;42.694;23.350;2023-04-25T19:53:34;331.80;;;59.30;;
51082;SDS011;37131;42.694;23.350;2023-04-25T19:55:59;327.27;;;64.27;;
51082;SDS011;37131;42.694;23.350;2023-04-25T19:58:25;341.10;;;60.07;;
51082;SDS011;37131;42.694;23.350;2023-04-25T20:00:51;316.73;;;64.68;;
51082;SDS011;37131;42.694;23.350;2023-04-25T20:03:16;345.90;;;59.60;;
51082;SDS011;37131;42.694;23.350;2023-04-25T20:05:42;358.08;;;64.50;;
51082;SDS011;37131;42.694;23.350;2023-04-25T20:08:07;349.90;;;66.50;;
51082;SDS011;37131;42.694;23.350;2023-04-25T20:10:33;354.97;;;66.90;;
51082;SDS011;37131;42.694;23.350;2023-04-25T20:12:58;348.13;;;63.83;;
51082;SDS011;37131;42.694;23.350;2023-04-25T20:15:24;345.33;;;66.50;;
51082;SDS011;37131;42.694;23.350;2023-04-25T20:17:49;331.48;;;66.15;;
51082;SDS011;37131;42.694;23.350;2023-04-25T20:20:15;338.07;;;66.17;;
51082;SDS011;37131;42.694;23.350;2023-04-25T20:22:41;345.60;;;66.83;;
51082;SDS011;37131;42.694;23.350;2023-04-25T20:25:07;326.30;;;66.57;;
51082;SDS011;37131;42.694;23.350;2023-04-25T20:39:48;407.05;;;66.45;;
51082;SDS011;37131;42.694;23.350;2023-04-25T20:47:05;371.33;;;66.77;;
51082;SDS011;37131;42.694;23.350;2023-04-25T20:49:30;376.20;;;67.50;;
51082;SDS011;37131;42.694;23.350;2023-04-25T20:51:56;398.70;;;72.75;;
51082;SDS011;37131;42.694;23.350;2023-04-25T20:54:22;392.60;;;73.90;;
51082;SDS011;37131;42.694;23.350;2023-04-25T20:56:48;386.80;;;70.00;;
51082;SDS011;37131;42.694;23.350;2023-04-25T20:59:14;404.60;;;68.70;;
51082;SDS011;37131;42.694;23.350;2023-04-25T21:04:05;391.30;;;72.00;;
51082;SDS011;37131;42.694;23.350;2023-04-25T21:08:58;406.10;;;73.00;;
51082;SDS011;37131;42.694;23.350;2023-04-25T21:16:16;370.63;;;70.00;;
51082;SDS011;37131;42.694;23.350;2023-04-25T21:21:06;382.30;;;75.60;;
51082;SDS011;37131;42.694;23.350;2023-04-25T21:23:32;401.70;;;96.40;;
51082;SDS011;37131;42.694;23.350;2023-04-25T21:30:48;407.20;;;69.90;;
51082;SDS011;37131;42.694;23.350;2023-04-25T22:07:12;403.55;;;90.10;;
51082;SDS011;37131;42.694;23.350;2023-04-25T22:09:38;409.10;;;66.40;;
51082;SDS011;37131;42.694;23.350;2023-04-25T23:25:14;237.47;;;97.50;;
51082;SDS011;37131;42.694;23.350;2023-04-25T23:27:40;279.90;;;110.35;;
51082;SDS011;37131;42.694;23.350;2023-04-25T23:30:07;179.63;;;65.18;;
51082;SDS011;37131;42.694;23.350;2023-04-25T23:32:33;211.88;;;58.30;;
51082;SDS011;37131;42.694;23.350;2023-04-25T23:34:58;275.50;;;73.78;;
51082;SDS011;37131;42.694;23.350;2023-04-25T23:37:23;294.80;;;66.75;;
51082;SDS011;37131;42.694;23.350;2023-04-25T23:39:49;180.77;;;105.07;;
51082;SDS011;37131;42.694;23.350;2023-04-25T23:42:15;225.00;;;75.78;;
51082;SDS011;37131;42.694;23.350;2023-04-25T23:44:41;225.13;;;68.00;;
51082;SDS011;37131;42.694;23.350;2023-04-25T23:47:06;241.05;;;65.10;;
51082;SDS011;37131;42.694;23.350;2023-04-25T23:49:32;234.70;;;63.40;;
51082;SDS011;37131;42.694;23.350;2023-04-25T23:51:57;234.18;;;65.72;;
51082;SDS011;37131;42.694;23.350;2023-04-25T23:54:23;259.52;;;64.60;;
51082;SDS011;37131;42.694;23.350;2023-04-25T23:56:48;280.85;;;105.60;;
51082;SDS011;37131;42.694;23.350;2023-04-25T23:59:14;241.80;;;67.85;;
